createdAt,value
2019-05-18T00:01:36.890Z,99473.36
2019-05-18T00:04:06.135Z,99476.89
2019-05-18T00:06:35.234Z,99481.73
2019-05-18T00:09:24.808Z,99126.79
2019-05-18T00:11:54.007Z,99477.81
2019-05-18T00:14:23.217Z,99237.22
2019-05-18T00:16:52.360Z,99480.05
2019-05-18T00:19:21.483Z,99482.69
2019-05-18T00:21:50.664Z,99478.77
2019-05-18T00:24:19.772Z,99477.50
2019-05-18T00:26:48.932Z,99490.76
2019-05-18T00:29:18.043Z,99473.66
2019-05-18T00:31:47.150Z,99463.61
2019-05-18T00:34:16.300Z,99462.31
2019-05-18T00:36:45.496Z,99468.48
2019-05-18T00:39:14.620Z,99463.67
2019-05-18T00:41:45.569Z,99457.98
2019-05-18T00:44:14.759Z,99461.51
2019-05-18T00:46:43.888Z,99457.57
2019-05-18T00:49:13.018Z,99461.13
2019-05-18T00:51:42.137Z,99458.55
2019-05-18T00:54:11.300Z,99460.70
2019-05-18T00:56:40.439Z,99451.97
2019-05-18T00:59:09.638Z,99455.09
2019-05-18T01:01:38.777Z,99452.08
2019-05-18T01:04:07.965Z,99450.80
2019-05-18T01:06:37.094Z,99459.17
2019-05-18T01:09:07.482Z,99458.32
2019-05-18T01:11:36.567Z,99456.60
2019-05-18T01:14:05.824Z,99460.18
2019-05-18T01:16:34.962Z,99456.28
2019-05-18T01:19:04.093Z,99455.44
2019-05-18T01:21:33.250Z,99460.28
2019-05-18T01:24:02.374Z,99453.73
2019-05-18T01:26:31.512Z,99456.41
2019-05-18T01:29:03.974Z,99455.13
2019-05-18T01:31:33.515Z,99453.83
2019-05-18T01:34:02.811Z,99454.75
2019-05-18T01:36:31.938Z,99449.95
2019-05-18T01:39:01.072Z,99454.34
2019-05-18T01:41:30.184Z,99446.91
2019-05-18T01:43:59.318Z,99451.75
2019-05-18T01:46:28.464Z,99450.02
2019-05-18T01:48:57.581Z,99439.97
2019-05-18T01:51:26.694Z,99447.89
2019-05-18T01:53:55.833Z,99445.29
2019-05-18T01:56:27.024Z,99451.89
2019-05-18T01:58:56.160Z,99448.44
2019-05-18T02:01:25.292Z,99447.58
2019-05-18T02:03:54.412Z,99449.79
2019-05-18T02:06:23.517Z,99447.62
2019-05-18T02:08:52.611Z,99452.03
2019-05-18T02:11:21.786Z,99448.55
2019-05-18T02:13:50.938Z,99448.15
2019-05-18T02:16:20.021Z,99452.13
2019-05-18T02:18:49.137Z,99447.33
2019-05-18T02:21:18.267Z,99459.23
2019-05-18T02:23:47.394Z,99453.55
2019-05-18T02:26:16.495Z,99455.33
2019-05-18T02:28:45.683Z,99447.88
2019-05-18T02:31:14.812Z,99325.11
2019-05-18T02:33:43.937Z,99447.95
2019-05-18T02:36:13.061Z,99443.13
2019-05-18T02:38:42.161Z,99449.30
2019-05-18T02:41:11.290Z,99445.83
2019-05-18T02:43:40.392Z,99448.08
2019-05-18T02:46:09.506Z,99447.22
2019-05-18T02:48:49.032Z,99444.16
2019-05-18T02:51:11.634Z,99447.25
2019-05-18T02:53:40.452Z,99448.98
2019-05-18T02:56:09.589Z,99451.19
2019-05-18T02:58:38.706Z,99445.95
2019-05-18T03:01:07.813Z,99447.73
2019-05-18T03:03:36.920Z,99445.56
2019-05-18T03:06:06.145Z,99446.06
2019-05-18T03:08:35.248Z,99445.64
2019-05-18T03:11:04.372Z,99448.28
2019-05-18T03:13:33.489Z,99445.23
2019-05-18T03:16:02.619Z,99439.98
2019-05-18T03:18:31.735Z,99437.36
2019-05-18T03:21:00.995Z,99436.50
2019-05-18T03:23:30.121Z,99432.55
2019-05-18T03:25:59.263Z,99433.91
2019-05-18T03:28:28.580Z,99435.27
2019-05-18T03:30:57.690Z,99437.94
2019-05-18T03:33:30.025Z,99439.70
2019-05-18T03:35:57.650Z,99444.09
2019-05-18T03:38:26.779Z,99446.72
2019-05-18T03:40:55.891Z,99441.02
2019-05-18T03:43:25.039Z,99443.22
2019-05-18T03:45:54.641Z,99441.50
2019-05-18T03:48:23.779Z,99437.99
2019-05-18T03:50:52.905Z,99445.88
2019-05-18T03:53:22.004Z,99447.66
2019-05-18T03:55:51.185Z,99201.16
2019-05-18T03:58:20.320Z,99441.55
2019-05-18T04:00:49.455Z,99441.97
2019-05-18T04:03:18.579Z,99444.15
2019-05-18T04:05:47.791Z,99438.89
2019-05-18T04:08:16.919Z,99442.38
2019-05-18T04:10:46.047Z,99447.19
2019-05-18T04:13:15.243Z,99440.59
2019-05-18T04:15:44.347Z,99440.57
2019-05-18T04:18:13.481Z,99436.58
2019-05-18T04:20:42.627Z,99437.00
2019-05-18T04:23:11.809Z,99436.11
2019-05-18T04:25:43.764Z,99438.30
2019-05-18T04:28:11.906Z,99444.87
2019-05-18T04:30:41.057Z,99437.86
2019-05-18T04:33:10.202Z,99444.41
2019-05-18T04:35:39.334Z,99445.76
2019-05-18T04:38:08.459Z,99447.95
2019-05-18T04:40:37.583Z,99440.45
2019-05-18T04:43:06.743Z,99441.73
2019-05-18T04:45:35.882Z,99441.70
2019-05-18T04:48:05.056Z,99442.12
2019-05-18T04:50:34.150Z,99438.95
2019-05-18T04:53:03.309Z,99442.41
2019-05-18T04:55:32.447Z,99446.76
2019-05-18T04:58:01.557Z,99444.98
2019-05-18T05:00:30.723Z,99448.06
2019-05-18T05:02:59.809Z,99452.37
2019-05-18T05:05:28.963Z,99450.56
2019-05-18T05:07:58.056Z,99447.00
2019-05-18T05:10:27.194Z,99445.13
2019-05-18T05:12:56.340Z,99442.87
2019-05-18T05:15:25.497Z,99446.73
2019-05-18T05:17:54.681Z,99441.85
2019-05-18T05:20:23.858Z,99440.41
2019-05-18T05:22:52.969Z,99444.73
2019-05-18T05:25:22.116Z,99441.59
2019-05-18T05:27:51.269Z,99433.17
2019-05-18T05:30:20.392Z,99430.47
2019-05-18T05:32:49.562Z,99427.73
2019-05-18T05:35:18.688Z,99428.48
2019-05-18T05:37:47.895Z,99427.95
2019-05-18T05:40:17.017Z,99424.34
2019-05-18T05:42:46.133Z,99426.86
2019-05-18T05:45:15.349Z,99432.47
2019-05-18T05:47:44.504Z,99428.38
2019-05-18T05:50:13.609Z,99428.22
2019-05-18T05:52:42.763Z,99427.66
2019-05-18T05:55:13.523Z,99427.92
2019-05-18T05:57:42.679Z,99434.82
2019-05-18T06:00:12.748Z,99429.92
2019-05-18T06:02:41.883Z,99434.61
2019-05-18T06:05:11.537Z,99434.03
2019-05-18T06:07:40.689Z,99440.08
2019-05-18T06:10:10.025Z,99439.50
2019-05-18T06:12:39.288Z,99183.19
2019-05-18T06:15:09.247Z,99436.47
2019-05-18T06:17:38.425Z,99432.27
2019-05-18T06:20:08.936Z,99434.26
2019-05-18T06:22:38.128Z,99444.20
2019-05-18T06:25:07.795Z,99437.37
2019-05-18T06:27:38.414Z,99442.00
2019-05-18T06:30:08.703Z,99436.00
2019-05-18T06:32:37.921Z,99437.45
2019-05-18T06:35:07.213Z,99438.13
2019-05-18T06:37:36.371Z,99438.38
2019-05-18T06:40:06.117Z,99444.67
2019-05-18T06:42:35.310Z,99444.78
2019-05-18T06:45:04.719Z,99443.59
2019-05-18T06:47:33.994Z,99443.75
2019-05-18T06:50:03.143Z,99440.77
2019-05-18T06:52:35.861Z,99443.11
2019-05-18T06:55:05.135Z,99431.23
2019-05-18T06:57:34.825Z,99436.51
2019-05-18T07:00:05.506Z,99433.03
2019-05-18T07:02:34.674Z,99435.19
2019-05-18T07:05:03.859Z,99441.98
2019-05-18T07:07:33.104Z,99435.51
2019-05-18T07:10:02.278Z,99432.92
2019-05-18T07:12:31.433Z,99430.82
2019-05-18T07:15:00.731Z,99434.40
2019-05-18T07:17:30.439Z,99433.49
2019-05-18T07:19:59.609Z,99432.07
2019-05-18T07:22:28.773Z,99429.30
2019-05-18T07:24:57.989Z,99424.17
2019-05-18T07:27:27.173Z,99427.45
2019-05-18T07:29:56.359Z,99430.78
2019-05-18T07:32:25.495Z,99419.16
2019-05-18T07:34:54.636Z,99419.64
2019-05-18T07:37:23.845Z,99418.61
2019-05-18T07:39:53.778Z,99418.11
2019-05-18T07:42:22.930Z,99418.39
2019-05-18T07:44:52.096Z,99412.84
2019-05-18T07:47:21.395Z,99413.52
2019-05-18T07:49:50.572Z,99410.05
2019-05-18T07:52:19.717Z,99405.50
2019-05-18T07:54:48.953Z,99400.69
2019-05-18T07:57:18.156Z,99397.45
2019-05-18T07:59:47.333Z,99394.95
2019-05-18T08:02:16.510Z,99400.48
2019-05-18T08:04:45.821Z,99404.55
2019-05-18T08:07:14.988Z,99401.91
2019-05-18T08:09:44.149Z,99405.05
2019-05-18T08:12:13.408Z,99403.69
2019-05-18T08:14:42.644Z,99407.33
2019-05-18T08:17:11.858Z,99409.09
2019-05-18T08:19:41.020Z,99401.84
2019-05-18T08:22:10.271Z,99398.64
2019-05-18T08:24:39.457Z,99395.47
2019-05-18T08:27:08.705Z,99388.04
2019-05-18T08:29:37.857Z,99388.58
2019-05-18T08:32:07.044Z,99392.50
2019-05-18T08:34:36.250Z,99384.55
2019-05-18T08:37:08.608Z,99383.17
2019-05-18T08:39:37.777Z,99379.62
2019-05-18T08:42:06.954Z,99376.91
2019-05-18T08:44:36.119Z,99383.69
2019-05-18T08:47:05.326Z,99381.08
2019-05-18T08:49:34.478Z,99374.08
2019-05-18T08:52:08.232Z,99372.09
2019-05-18T08:54:34.624Z,99371.41
2019-05-18T08:57:03.737Z,99371.08
2019-05-18T08:59:32.875Z,99375.11
2019-05-18T15:22:54.369Z,99267.66
2019-05-18T15:25:23.596Z,99268.55
2019-05-18T15:27:52.823Z,99147.86
2019-05-18T15:30:22.321Z,99266.31
2019-05-18T15:32:51.487Z,99257.81
2019-05-18T15:35:20.684Z,99260.39
2019-05-18T15:37:50.001Z,99260.98
2019-05-18T15:40:19.287Z,99262.63
2019-05-18T15:42:48.761Z,99262.11
2019-05-18T15:45:18.147Z,99260.39
2019-05-18T15:47:47.455Z,99259.04
2019-05-18T15:50:17.064Z,99258.94
2019-05-18T15:52:46.192Z,99258.55
2019-05-18T15:55:15.530Z,99259.30
2019-05-18T15:57:57.753Z,99259.41
2019-05-18T16:00:26.940Z,99259.67
2019-05-18T16:02:56.066Z,99256.83
2019-05-18T16:05:26.141Z,99258.08
2019-05-18T16:07:55.316Z,99262.02
2019-05-18T16:10:24.604Z,99253.89
2019-05-18T16:12:53.835Z,99255.97
2019-05-18T16:15:23.184Z,99253.53
2019-05-18T16:17:52.372Z,99259.44
2019-05-18T16:20:21.766Z,99258.71
2019-05-18T16:22:50.925Z,99258.81
2019-05-18T16:25:20.053Z,99259.70
2019-05-18T16:27:49.317Z,99257.98
2019-05-18T16:30:18.938Z,99253.00
2019-05-18T16:32:48.116Z,99257.45
2019-05-18T16:35:17.768Z,99264.23
2019-05-18T16:37:46.957Z,99262.54
2019-05-18T16:40:16.192Z,99265.25
2019-05-18T16:42:46.696Z,99261.58
2019-05-18T16:45:17.313Z,99262.03
2019-05-18T16:47:46.459Z,99262.81
2019-05-18T16:50:16.244Z,99260.66
2019-05-18T16:52:45.395Z,99262.05
2019-05-18T16:55:14.634Z,99263.69
2019-05-18T16:57:43.772Z,99266.22
2019-05-18T17:00:16.250Z,99264.01
2019-05-18T17:02:44.966Z,99262.89
2019-05-18T17:05:15.268Z,99270.29
2019-05-18T17:07:44.360Z,99270.05
2019-05-18T17:10:14.441Z,99271.22
2019-05-18T17:12:43.552Z,99279.08
2019-05-18T17:15:12.820Z,99270.25
2019-05-18T17:17:41.961Z,99271.48
2019-05-18T17:20:11.337Z,99276.77
2019-05-18T17:22:40.526Z,99273.11
2019-05-18T17:25:09.905Z,99278.63
2019-05-18T17:27:39.041Z,99272.49
2019-05-18T17:30:09.489Z,99285.02
2019-05-18T17:32:38.665Z,99287.13
2019-05-18T17:35:08.275Z,99292.15
2019-05-18T17:37:37.466Z,99295.39
2019-05-18T17:40:08.255Z,99295.39
2019-05-18T17:42:37.407Z,99293.39
2019-05-18T17:45:06.731Z,99299.23
2019-05-18T17:47:35.939Z,99293.90
2019-05-18T17:50:05.679Z,99301.28
2019-05-18T17:52:34.844Z,99297.17
2019-05-18T17:55:04.180Z,99311.20
2019-05-18T17:57:33.337Z,99307.11
2019-05-18T18:00:02.540Z,99308.41
2019-05-18T18:02:31.673Z,99309.66
2019-05-18T18:05:00.841Z,99301.86
2019-05-18T18:07:29.957Z,99306.93
2019-05-18T18:09:59.111Z,99304.08
2019-05-18T18:12:28.251Z,99305.74
2019-05-18T18:14:57.423Z,99306.31
2019-05-18T18:17:26.576Z,99302.22
2019-05-18T18:19:55.749Z,99308.52
2019-05-18T18:22:24.937Z,99306.66
2019-05-18T18:24:54.091Z,99318.92
2019-05-18T18:27:25.511Z,99314.31
2019-05-18T18:30:00.806Z,99315.69
2019-05-18T18:32:29.967Z,99319.48
2019-05-18T18:34:59.101Z,99318.48
2019-05-18T18:37:28.240Z,99317.03
2019-05-18T18:39:57.390Z,99326.95
2019-05-18T18:42:26.592Z,99328.02
2019-05-18T18:44:55.760Z,99323.28
2019-05-18T18:47:24.933Z,99326.37
2019-05-18T18:49:54.089Z,99327.34
2019-05-18T18:52:23.219Z,99333.93
2019-05-18T18:54:52.461Z,99330.02
2019-05-18T18:57:21.564Z,99333.69
2019-05-18T18:59:50.760Z,99329.79
2019-05-18T19:02:19.910Z,99324.23
2019-05-18T19:04:49.090Z,99328.38
2019-05-18T19:07:18.200Z,99328.48
2019-05-18T19:09:47.399Z,99322.84
2019-05-18T19:12:16.576Z,99328.97
2019-05-18T19:14:45.701Z,99336.14
2019-05-18T19:17:14.872Z,99246.64
2019-05-18T19:19:43.993Z,99330.73
2019-05-18T19:22:15.010Z,99334.18
2019-05-18T19:24:44.142Z,99339.14
2019-05-18T19:27:13.345Z,99339.50
2019-05-18T19:29:42.444Z,99349.67
2019-05-18T19:32:11.600Z,99350.33
2019-05-18T19:34:40.773Z,99353.78
2019-05-18T19:37:09.944Z,99351.42
2019-05-18T19:39:39.100Z,99356.03
2019-05-18T19:42:08.288Z,99362.86
2019-05-18T19:44:37.461Z,99362.58
2019-05-18T19:47:06.592Z,99363.97
2019-05-18T19:49:35.788Z,99365.00
2019-05-18T19:52:04.936Z,99366.36
2019-05-18T19:54:34.111Z,99368.48
2019-05-18T19:57:03.387Z,99367.58
2019-05-18T19:59:32.550Z,99372.06
2019-05-18T20:02:01.674Z,99380.27
2019-05-18T20:04:30.829Z,99379.72
2019-05-18T20:07:19.639Z,99373.19
2019-05-18T20:09:47.861Z,99363.83
2019-05-18T20:12:17.008Z,99361.23
2019-05-18T20:14:46.186Z,99367.69
2019-05-18T20:17:15.368Z,99369.28
2019-05-18T20:19:44.543Z,99370.92
2019-05-18T20:22:13.709Z,99372.25
2019-05-18T20:24:42.856Z,99365.66
2019-05-18T20:27:12.020Z,99370.95
2019-05-18T20:29:41.170Z,99371.35
2019-05-18T20:32:10.370Z,99374.06
2019-05-18T20:34:39.506Z,99371.88
2019-05-18T20:37:08.731Z,99374.58
2019-05-18T20:39:37.824Z,99378.19
2019-05-18T20:42:06.965Z,99379.94
2019-05-18T20:44:36.124Z,99374.73
2019-05-18T20:47:05.275Z,99375.41
2019-05-18T20:49:34.411Z,99377.03
2019-05-18T20:52:03.551Z,99381.08
2019-05-18T20:54:32.727Z,99383.16
2019-05-18T20:57:01.886Z,99374.13
2019-05-18T20:59:31.007Z,99377.10
2019-05-18T21:02:00.179Z,99375.77
2019-05-18T21:04:29.291Z,99371.80
2019-05-18T21:06:58.413Z,99369.60
2019-05-18T21:09:27.579Z,99373.43
2019-05-18T21:11:56.710Z,99376.76
2019-05-18T21:14:25.855Z,99382.28
2019-05-18T21:16:55.031Z,99372.75
2019-05-18T21:19:24.254Z,99371.70
2019-05-18T21:21:53.386Z,99376.36
2019-05-18T21:24:22.545Z,99375.22
2019-05-18T21:26:51.742Z,99376.80
2019-05-18T21:29:20.869Z,99384.20
2019-05-18T21:31:50.017Z,99384.52
2019-05-18T21:34:19.247Z,99244.44
2019-05-18T21:36:48.392Z,99380.49
2019-05-18T21:39:17.507Z,99240.23
2019-05-18T21:41:46.809Z,99389.37
2019-05-18T21:44:15.907Z,99397.07
2019-05-18T21:46:45.053Z,99393.13
2019-05-18T21:49:14.181Z,99391.69
2019-05-18T21:51:43.362Z,99393.69
2019-05-18T21:54:12.551Z,99394.21
2019-05-18T21:56:41.725Z,99392.53
2019-05-18T21:59:12.369Z,99394.03
2019-05-18T22:01:41.873Z,99384.78
2019-05-18T22:04:11.022Z,99386.64
2019-05-18T22:06:40.230Z,99384.70
2019-05-18T22:09:09.519Z,99380.08
2019-05-18T22:11:38.686Z,99379.84
2019-05-18T22:14:08.686Z,99379.29
2019-05-18T22:16:37.849Z,99376.45
2019-05-18T22:19:06.973Z,99374.88
2019-05-18T22:21:36.096Z,99375.60
2019-05-18T22:24:05.305Z,99380.78
2019-05-18T22:26:34.472Z,99385.80
2019-05-18T22:29:03.576Z,99385.39
2019-05-18T22:31:32.742Z,99386.80
2019-05-18T22:34:02.051Z,99381.57
2019-05-18T22:36:31.295Z,99386.59
2019-05-18T22:39:00.398Z,99386.45
2019-05-18T22:41:29.539Z,99385.82
2019-05-18T22:43:58.741Z,99388.73
2019-05-18T22:46:27.882Z,99382.72
2019-05-18T22:48:57.022Z,99377.61
2019-05-18T22:51:26.163Z,99375.14
2019-05-18T22:53:55.326Z,99375.25
2019-05-18T22:56:24.464Z,99375.81
2019-05-18T22:58:53.767Z,99312.98
2019-05-18T23:01:22.898Z,99372.13
2019-05-18T23:03:52.091Z,99375.13
2019-05-18T23:06:21.270Z,99374.50
2019-05-18T23:08:50.406Z,99381.19
2019-05-18T23:11:19.592Z,99376.80
2019-05-18T23:13:48.830Z,99378.53
2019-05-18T23:16:17.959Z,99368.37
2019-05-18T23:18:56.352Z,99369.24
2019-05-18T23:21:17.967Z,99360.41
2019-05-18T23:23:47.094Z,99362.38
2019-05-18T23:26:16.253Z,99359.83
2019-05-18T23:28:45.462Z,99358.33
2019-05-18T23:31:14.621Z,99364.78
2019-05-18T23:33:43.736Z,99365.89
2019-05-18T23:36:12.874Z,99362.05
2019-05-18T23:38:42.024Z,99358.58
2019-05-18T23:41:11.133Z,99360.82
2019-05-18T23:43:40.370Z,99358.80
2019-05-18T23:46:09.618Z,99359.41
2019-05-18T23:48:38.819Z,99362.16
2019-05-18T23:51:07.965Z,99358.23
2019-05-18T23:53:37.137Z,99359.55
2019-05-18T23:56:06.262Z,99361.80
2019-05-18T23:58:35.428Z,99362.70
